createdAt,value
2019-02-14T00:00:18.547Z,9.40
2019-02-14T00:02:46.425Z,9.27
2019-02-14T00:05:16.480Z,11.20
2019-02-14T00:07:44.062Z,9.97
2019-02-14T00:10:12.067Z,10.27
2019-02-14T00:12:40.035Z,9.60
2019-02-14T00:15:08.262Z,8.80
2019-02-14T00:17:36.125Z,9.80
2019-02-14T00:20:04.214Z,9.03
2019-02-14T00:22:32.191Z,10.00
2019-02-14T00:25:00.293Z,10.00
2019-02-14T00:27:28.138Z,9.50
2019-02-14T00:29:56.002Z,10.17
2019-02-14T00:32:23.891Z,11.40
2019-02-14T00:34:51.812Z,11.30
2019-02-14T00:37:19.727Z,9.20
2019-02-14T00:39:47.646Z,9.90
2019-02-14T00:42:15.884Z,10.27
2019-02-14T00:44:43.790Z,10.13
2019-02-14T00:47:11.797Z,10.43
2019-02-14T00:49:39.968Z,9.87
2019-02-14T00:52:07.869Z,8.90
2019-02-14T00:54:35.834Z,9.70
2019-02-14T00:59:39.608Z,10.17
2019-02-14T01:02:07.567Z,9.77
2019-02-14T01:04:35.426Z,10.50
2019-02-14T01:07:03.693Z,11.30
2019-02-14T01:09:31.610Z,11.50
2019-02-14T01:11:59.568Z,10.60
2019-02-14T01:14:27.630Z,10.57
2019-02-14T01:16:55.563Z,10.50
2019-02-14T01:19:23.473Z,10.73
2019-02-14T01:21:51.353Z,9.67
2019-02-14T01:24:19.239Z,9.20
2019-02-14T01:26:47.336Z,9.93
2019-02-14T01:29:15.328Z,10.80
2019-02-14T01:31:43.286Z,10.10
2019-02-14T01:34:11.218Z,11.83
2019-02-14T01:36:39.436Z,10.30
2019-02-14T01:39:07.335Z,10.50
2019-02-14T01:41:35.213Z,10.17
2019-02-14T01:44:03.219Z,10.47
2019-02-14T01:46:31.469Z,9.17
2019-02-14T01:48:59.501Z,10.80
2019-02-14T01:51:27.392Z,10.17
2019-02-14T01:53:55.325Z,10.83
2019-02-14T01:56:23.291Z,10.27
2019-02-14T01:58:51.309Z,11.30
2019-02-14T02:01:19.311Z,10.50
2019-02-14T02:03:47.189Z,10.30
2019-02-14T02:06:15.049Z,11.27
2019-02-14T02:08:43.055Z,10.20
2019-02-14T02:11:10.969Z,9.00
2019-02-14T02:13:38.862Z,11.70
2019-02-14T02:16:07.208Z,11.83
2019-02-14T02:18:36.711Z,11.23
2019-02-14T02:21:04.672Z,10.03
2019-02-14T02:23:32.638Z,10.40
2019-02-14T02:26:00.486Z,9.80
2019-02-14T02:28:28.458Z,9.57
2019-02-14T02:30:56.437Z,8.70
2019-02-14T02:33:24.484Z,8.70
2019-02-14T02:36:00.233Z,10.50
2019-02-14T02:38:22.169Z,10.30
2019-02-14T02:40:50.249Z,10.60
2019-02-14T02:43:18.220Z,9.10
2019-02-14T02:45:46.070Z,9.37
2019-02-14T02:48:13.986Z,9.70
2019-02-14T02:50:41.880Z,8.40
2019-02-14T02:53:09.760Z,9.80
2019-02-14T02:55:37.702Z,8.90
2019-02-14T02:58:05.640Z,9.27
2019-02-14T03:00:33.579Z,9.10
2019-02-14T03:03:01.431Z,8.77
2019-02-14T03:05:29.584Z,9.30
2019-02-14T03:07:57.614Z,9.10
2019-02-14T03:10:25.608Z,7.97
2019-02-14T03:12:53.649Z,8.40
2019-02-14T03:15:21.683Z,7.80
2019-02-14T03:17:49.665Z,7.70
2019-02-14T03:20:17.860Z,7.50
2019-02-14T03:22:45.889Z,7.40
2019-02-14T03:25:14.919Z,7.60
2019-02-14T03:27:42.788Z,7.40
2019-02-14T03:30:11.369Z,8.33
2019-02-14T03:32:39.289Z,7.70
2019-02-14T03:35:07.592Z,8.10
2019-02-14T03:37:35.856Z,7.90
2019-02-14T03:40:03.874Z,7.20
2019-02-14T03:42:31.843Z,7.93
2019-02-14T03:44:59.917Z,7.70
2019-02-14T03:47:27.873Z,7.63
2019-02-14T03:49:55.810Z,8.60
2019-02-14T03:52:23.685Z,8.17
2019-02-14T03:54:51.663Z,7.43
2019-02-14T03:57:19.544Z,8.83
2019-02-14T03:59:47.718Z,8.90
2019-02-14T04:02:15.750Z,8.60
2019-02-14T04:04:43.687Z,8.70
2019-02-14T04:07:11.632Z,9.53
2019-02-14T04:09:39.502Z,8.03
2019-02-14T04:12:07.694Z,8.23
2019-02-14T04:14:35.539Z,8.27
2019-02-14T04:17:03.442Z,8.47
2019-02-14T04:19:31.381Z,8.20
2019-02-14T04:21:59.366Z,8.37
2019-02-14T04:24:27.208Z,7.77
2019-02-14T04:26:55.481Z,8.37
2019-02-14T04:29:23.342Z,9.10
2019-02-14T04:31:51.307Z,9.03
2019-02-14T04:34:19.215Z,8.17
2019-02-14T04:36:47.105Z,8.33
2019-02-14T04:39:15.026Z,8.23
2019-02-14T04:41:42.923Z,8.00
2019-02-14T04:44:10.869Z,8.53
2019-02-14T04:46:38.779Z,8.43
2019-02-14T04:49:06.681Z,7.07
2019-02-14T04:51:34.645Z,7.30
2019-02-14T04:54:02.512Z,8.80
2019-02-14T04:56:30.523Z,8.13
2019-02-14T04:58:58.405Z,8.60
2019-02-14T05:01:26.289Z,7.70
2019-02-14T05:03:54.226Z,7.10
2019-02-14T05:06:22.120Z,7.47
2019-02-14T05:08:50.036Z,7.60
2019-02-14T05:11:18.017Z,6.83
2019-02-14T05:13:45.906Z,8.07
2019-02-14T05:16:13.763Z,6.93
2019-02-14T05:18:41.688Z,7.70
2019-02-14T05:21:09.713Z,7.27
2019-02-14T05:23:37.587Z,7.50
2019-02-14T05:26:05.643Z,8.10
2019-02-14T05:28:33.619Z,7.10
2019-02-14T05:31:01.550Z,7.33
2019-02-14T05:33:29.443Z,7.07
2019-02-14T05:35:57.306Z,7.40
2019-02-14T05:38:25.301Z,7.97
2019-02-14T05:40:53.155Z,7.80
2019-02-14T05:43:21.081Z,8.60
2019-02-14T05:45:49.288Z,8.47
2019-02-14T05:48:17.159Z,8.60
2019-02-14T05:50:45.038Z,8.73
2019-02-14T05:53:12.989Z,8.00
2019-02-14T05:55:40.863Z,7.87
2019-02-14T05:58:09.050Z,9.10
2019-02-14T06:00:37.085Z,8.80
2019-02-14T06:03:04.971Z,8.17
2019-02-14T06:05:32.849Z,8.80
2019-02-14T06:08:00.898Z,8.63
2019-02-14T06:10:28.826Z,7.87
2019-02-14T06:12:56.740Z,9.00
2019-02-14T06:15:24.722Z,10.50
2019-02-14T06:17:52.800Z,10.20
2019-02-14T06:20:20.862Z,9.97
2019-02-14T06:22:49.264Z,9.77
2019-02-14T06:25:17.155Z,9.83
2019-02-14T06:27:45.078Z,9.93
2019-02-14T06:30:13.876Z,9.87
2019-02-14T06:32:41.834Z,9.17
2019-02-14T06:35:10.900Z,9.73
2019-02-14T06:37:38.967Z,9.53
2019-02-14T06:40:07.790Z,10.00
2019-02-14T06:42:35.761Z,9.87
2019-02-14T06:45:04.053Z,10.13
2019-02-14T06:47:32.000Z,9.50
2019-02-14T06:49:59.945Z,10.23
2019-02-14T06:52:28.028Z,9.53
2019-02-14T06:54:55.998Z,9.90
2019-02-14T06:57:25.104Z,10.20
2019-02-14T06:59:53.068Z,10.10
2019-02-14T07:02:21.047Z,11.90
2019-02-14T07:04:49.114Z,10.90
2019-02-14T07:07:18.869Z,11.90
2019-02-14T07:09:47.043Z,11.40
2019-02-14T07:12:14.978Z,11.60
2019-02-14T07:14:43.203Z,11.97
2019-02-14T07:17:12.311Z,11.00
2019-02-14T07:19:40.247Z,12.77
2019-02-14T07:22:08.326Z,12.10
2019-02-14T07:24:36.319Z,12.07
2019-02-14T07:27:05.418Z,11.47
2019-02-14T07:29:33.391Z,12.47
2019-02-14T07:32:01.375Z,12.23
2019-02-14T07:34:29.387Z,12.20
2019-02-14T07:36:57.418Z,11.37
2019-02-14T07:39:25.459Z,11.47
2019-02-14T07:41:53.435Z,11.07
2019-02-14T07:44:21.510Z,12.03
2019-02-14T07:46:50.297Z,12.33
2019-02-14T07:49:18.307Z,11.30
2019-02-14T07:51:48.780Z,11.70
2019-02-14T07:54:16.913Z,13.37
2019-02-14T07:56:44.915Z,13.20
2019-02-14T07:59:12.947Z,11.30
2019-02-14T08:01:41.170Z,11.03
2019-02-14T08:04:09.034Z,10.73
2019-02-14T08:06:36.967Z,10.43
2019-02-14T08:09:05.661Z,9.47
2019-02-14T08:11:33.579Z,9.17
2019-02-14T08:14:01.440Z,9.07
2019-02-14T08:16:29.586Z,8.93
2019-02-14T08:18:57.844Z,10.23
2019-02-14T08:21:25.964Z,9.10
2019-02-14T08:23:54.336Z,8.80
2019-02-14T08:26:22.283Z,8.97
2019-02-14T08:28:50.211Z,9.10
2019-02-14T08:31:18.349Z,9.77
2019-02-14T08:33:46.394Z,10.83
2019-02-14T08:36:14.300Z,11.40
2019-02-14T08:38:42.233Z,9.87
2019-02-14T08:41:10.224Z,10.37
2019-02-14T08:43:38.213Z,9.33
2019-02-14T08:46:06.212Z,9.90
2019-02-14T08:48:34.350Z,9.87
2019-02-14T08:51:02.272Z,10.03
2019-02-14T08:53:30.198Z,9.40
2019-02-14T08:55:58.189Z,10.20
2019-02-14T08:58:26.150Z,9.20
2019-02-14T09:00:54.088Z,7.63
2019-02-14T09:03:23.078Z,7.77
2019-02-14T09:05:51.053Z,7.83
2019-02-14T09:08:18.957Z,7.30
2019-02-14T09:10:46.915Z,7.43
2019-02-14T09:13:17.194Z,7.60
2019-02-14T09:15:44.451Z,8.27
2019-02-14T09:18:12.357Z,7.20
2019-02-14T09:20:40.252Z,7.50
2019-02-14T09:23:08.356Z,8.23
2019-02-14T09:25:36.388Z,8.20
2019-02-14T09:28:04.447Z,6.50
2019-02-14T09:30:32.416Z,6.80
2019-02-14T09:33:00.490Z,6.57
2019-02-14T09:35:28.556Z,6.20
2019-02-14T09:38:03.050Z,6.80
2019-02-14T09:40:26.562Z,7.00
2019-02-14T09:42:54.601Z,7.10
2019-02-14T09:45:22.683Z,6.03
2019-02-14T09:47:50.634Z,6.50
2019-02-14T09:50:18.721Z,7.10
2019-02-14T09:52:46.750Z,7.77
2019-02-14T09:55:14.784Z,7.67
2019-02-14T09:57:44.072Z,7.40
2019-02-14T10:00:13.164Z,8.00
2019-02-14T10:02:41.171Z,7.67
2019-02-14T10:05:09.396Z,7.20
2019-02-14T10:07:37.489Z,8.00
2019-02-14T10:10:06.270Z,8.40
2019-02-14T10:12:34.404Z,8.33
2019-02-14T10:15:02.725Z,9.33
2019-02-14T10:17:30.889Z,7.40
2019-02-14T10:19:58.877Z,9.37
2019-02-14T10:22:26.806Z,8.70
2019-02-14T10:24:54.795Z,8.27
2019-02-14T10:27:23.160Z,8.47
2019-02-14T10:29:51.028Z,8.80
2019-02-14T10:32:19.003Z,10.37
2019-02-14T10:34:46.894Z,10.83
2019-02-14T10:37:16.897Z,9.40
2019-02-14T10:39:44.772Z,9.40
2019-02-14T10:42:12.850Z,10.10
2019-02-14T10:44:41.000Z,9.37
2019-02-14T10:47:08.896Z,9.30
2019-02-14T10:49:36.758Z,10.30
2019-02-14T10:52:05.080Z,9.90
2019-02-14T10:54:33.067Z,8.90
2019-02-14T10:57:00.946Z,9.40
2019-02-14T10:59:29.160Z,9.83
2019-02-14T11:01:57.198Z,10.87
2019-02-14T11:04:25.083Z,10.40
2019-02-14T11:06:53.081Z,9.70
2019-02-14T11:09:21.003Z,9.83
2019-02-14T11:11:49.174Z,10.40
2019-02-14T11:14:17.213Z,8.87
2019-02-14T11:16:46.195Z,9.83
2019-02-14T11:19:14.237Z,10.50
2019-02-14T11:21:42.124Z,10.67
2019-02-14T11:24:10.037Z,10.40
2019-02-14T11:26:37.959Z,10.53
2019-02-14T11:29:05.964Z,10.50
2019-02-14T11:31:34.731Z,10.97
2019-02-14T11:34:02.924Z,10.53
2019-02-14T11:36:30.836Z,11.07
2019-02-14T11:38:58.739Z,10.43
2019-02-14T11:41:26.682Z,11.60
2019-02-14T11:43:54.567Z,12.40
2019-02-14T11:46:22.636Z,10.67
2019-02-14T11:48:50.717Z,12.33
2019-02-14T11:51:18.711Z,11.97
2019-02-14T11:53:46.743Z,12.90
2019-02-14T11:56:14.830Z,12.77
2019-02-14T11:58:42.894Z,13.80
2019-02-14T12:01:11.156Z,12.67
2019-02-14T12:03:39.221Z,13.93
2019-02-14T12:06:07.353Z,13.90
2019-02-14T12:08:35.341Z,13.03
2019-02-14T12:11:03.452Z,13.07
2019-02-14T12:13:32.102Z,12.23
2019-02-14T12:16:00.001Z,13.57
2019-02-14T12:18:27.897Z,14.50
2019-02-14T12:20:55.810Z,14.10
2019-02-14T12:23:23.739Z,14.33
2019-02-14T12:25:51.684Z,13.33
2019-02-14T12:28:19.818Z,12.63
2019-02-14T12:30:47.826Z,12.13
2019-02-14T12:33:16.452Z,14.10
2019-02-14T12:35:44.533Z,13.77
2019-02-14T12:38:12.800Z,13.60
2019-02-14T12:40:40.703Z,13.60
2019-02-14T12:43:08.703Z,13.10
2019-02-14T12:45:36.601Z,12.83
2019-02-14T12:48:04.507Z,13.17
2019-02-14T12:50:33.004Z,12.90
2019-02-14T12:53:00.880Z,13.80
2019-02-14T12:55:28.897Z,12.20
2019-02-14T12:57:56.812Z,12.10
2019-02-14T13:00:24.745Z,14.20
2019-02-14T13:02:52.663Z,13.47
2019-02-14T13:05:20.570Z,13.50
2019-02-14T13:07:48.405Z,12.87
2019-02-14T13:10:16.408Z,13.70
2019-02-14T13:12:44.295Z,12.50
2019-02-14T13:15:13.156Z,13.10
2019-02-14T13:17:41.044Z,11.80
2019-02-14T13:20:08.904Z,13.47
2019-02-14T13:22:36.845Z,12.83
2019-02-14T13:25:05.114Z,12.27
2019-02-14T13:27:33.029Z,11.67
2019-02-14T13:30:00.927Z,12.47
2019-02-14T13:32:29.115Z,11.80
2019-02-14T13:34:57.049Z,12.60
2019-02-14T13:37:24.980Z,12.77
2019-02-14T13:39:52.959Z,12.63
2019-02-14T13:42:21.064Z,12.60
2019-02-14T13:44:48.919Z,11.87
2019-02-14T13:47:17.145Z,12.10
2019-02-14T13:49:45.021Z,12.30
2019-02-14T13:52:12.996Z,12.70
2019-02-14T13:54:40.892Z,11.47
2019-02-14T13:57:09.113Z,11.43
2019-02-14T13:59:37.410Z,12.40
2019-02-14T14:02:05.332Z,12.83
2019-02-14T14:04:33.488Z,11.53
2019-02-14T14:07:01.404Z,12.13
2019-02-14T14:09:38.202Z,12.30
2019-02-14T14:11:59.311Z,10.70
2019-02-14T14:14:27.255Z,12.43
2019-02-14T14:16:55.221Z,13.07
2019-02-14T14:19:23.535Z,12.50
2019-02-14T14:21:51.901Z,12.20
2019-02-14T14:24:19.807Z,12.40
2019-02-14T14:26:47.664Z,12.60
2019-02-14T14:29:15.600Z,11.93
2019-02-14T14:31:43.592Z,11.10
2019-02-14T14:34:11.463Z,12.67
2019-02-14T14:36:39.609Z,11.67
2019-02-14T14:39:07.464Z,12.73
2019-02-14T14:41:35.418Z,11.30
2019-02-14T14:44:18.674Z,12.93
2019-02-14T14:46:56.587Z,12.90
2019-02-14T14:49:24.588Z,13.00
2019-02-14T14:51:52.460Z,12.63
2019-02-14T14:54:20.315Z,11.90
2019-02-14T14:56:48.322Z,12.83
2019-02-14T14:59:16.273Z,12.83
2019-02-14T15:01:44.196Z,11.67
2019-02-14T15:04:12.117Z,12.00
2019-02-14T15:06:40.077Z,11.17
2019-02-14T15:09:07.999Z,11.57
2019-02-14T15:11:36.041Z,11.93
2019-02-14T15:14:04.634Z,11.23
2019-02-14T15:16:32.698Z,12.67
2019-02-14T15:19:00.667Z,11.90
2019-02-14T15:21:28.575Z,12.73
2019-02-14T15:23:57.521Z,13.03
2019-02-14T15:26:25.435Z,13.27
2019-02-14T15:28:53.475Z,12.50
2019-02-14T15:31:21.546Z,11.50
2019-02-14T15:33:49.495Z,11.70
2019-02-14T15:36:18.037Z,12.80
2019-02-14T15:38:46.706Z,11.87
2019-02-14T15:41:14.604Z,12.30
2019-02-14T15:43:42.503Z,12.47
2019-02-14T15:46:10.425Z,12.80
2019-02-14T15:48:38.652Z,11.73
2019-02-14T15:51:06.515Z,12.37
2019-02-14T15:53:34.581Z,11.40
2019-02-14T15:56:05.463Z,12.30
2019-02-14T15:58:34.067Z,12.23
2019-02-14T16:01:02.220Z,12.63
2019-02-14T16:03:30.325Z,12.80
2019-02-14T16:05:58.246Z,13.13
2019-02-14T16:08:26.232Z,12.20
2019-02-14T16:10:55.916Z,11.60
2019-02-14T16:13:24.001Z,10.73
2019-02-14T16:15:58.803Z,11.60
2019-02-14T16:18:26.307Z,12.63
2019-02-14T16:20:54.191Z,11.43
2019-02-14T16:23:22.078Z,11.00
2019-02-14T16:25:51.679Z,12.23
2019-02-14T16:28:19.724Z,12.83
2019-02-14T16:30:47.618Z,11.67
2019-02-14T16:33:15.516Z,11.97
2019-02-14T16:35:43.536Z,11.40
2019-02-14T16:38:12.432Z,13.30
2019-02-14T16:40:41.417Z,12.67
2019-02-14T16:43:09.275Z,13.37
2019-02-14T16:45:37.275Z,12.23
2019-02-14T16:48:05.434Z,11.97
2019-02-14T16:50:33.954Z,12.50
2019-02-14T16:53:02.503Z,13.50
2019-02-14T16:55:30.532Z,13.40
2019-02-14T16:57:58.595Z,12.73
2019-02-14T17:00:26.748Z,13.17
2019-02-14T17:02:54.698Z,12.47
2019-02-14T17:05:22.585Z,13.80
2019-02-14T17:07:51.810Z,14.50
2019-02-14T17:10:19.778Z,13.57
2019-02-14T17:12:47.692Z,13.90
2019-02-14T17:15:15.604Z,14.93
2019-02-14T17:17:43.482Z,16.40
2019-02-14T17:20:11.433Z,17.53
2019-02-14T17:22:39.376Z,16.60
2019-02-14T17:25:07.587Z,17.07
2019-02-14T17:27:35.540Z,16.43
2019-02-14T17:30:03.459Z,18.00
2019-02-14T17:32:31.428Z,18.10
2019-02-14T17:34:59.309Z,17.33
2019-02-14T17:37:27.418Z,17.00
2019-02-14T17:39:55.561Z,17.33
2019-02-14T17:42:23.510Z,17.97
2019-02-14T17:44:51.555Z,17.13
2019-02-14T17:47:19.464Z,18.00
2019-02-14T17:49:47.347Z,18.37
2019-02-14T17:52:15.994Z,20.33
2019-02-14T17:54:44.918Z,19.60
2019-02-14T17:57:12.799Z,20.40
2019-02-14T17:59:40.678Z,19.33
2019-02-14T18:02:08.559Z,19.57
2019-02-14T18:04:36.479Z,21.43
2019-02-14T18:07:04.460Z,19.87
2019-02-14T18:09:32.350Z,19.70
2019-02-14T18:12:00.224Z,20.30
2019-02-14T18:14:28.418Z,23.67
2019-02-14T18:16:56.518Z,23.37
2019-02-14T18:19:24.576Z,23.20
2019-02-14T18:21:52.483Z,22.90
2019-02-14T18:24:20.408Z,21.10
2019-02-14T18:26:48.457Z,19.57
2019-02-14T18:29:16.578Z,18.13
2019-02-14T18:31:44.453Z,18.97
2019-02-14T18:34:12.838Z,17.87
2019-02-14T18:36:40.920Z,18.23
2019-02-14T18:39:08.756Z,17.43
2019-02-14T18:41:36.878Z,16.50
2019-02-14T18:44:05.134Z,17.10
2019-02-14T18:46:33.038Z,17.90
2019-02-14T18:49:01.028Z,16.50
2019-02-14T18:51:28.925Z,17.33
2019-02-14T18:53:56.990Z,17.63
2019-02-14T18:56:24.871Z,16.10
2019-02-14T18:58:52.743Z,16.60
2019-02-14T19:01:20.824Z,17.37
2019-02-14T19:03:48.968Z,16.50
2019-02-14T19:06:17.181Z,17.23
2019-02-14T19:08:45.168Z,17.83
2019-02-14T19:11:15.083Z,16.77
2019-02-14T19:13:42.892Z,16.00
2019-02-14T19:16:11.149Z,18.10
2019-02-14T19:18:39.065Z,17.50
2019-02-14T19:21:07.199Z,18.10
2019-02-14T19:23:35.364Z,18.67
2019-02-14T19:26:03.284Z,17.30
2019-02-14T19:28:31.234Z,18.00
2019-02-14T19:30:59.411Z,18.07
2019-02-14T19:33:27.291Z,17.90
2019-02-14T19:35:55.266Z,19.37
2019-02-14T19:38:23.499Z,18.10
2019-02-14T19:40:51.505Z,19.03
2019-02-14T19:43:19.753Z,18.30
2019-02-14T19:45:47.692Z,18.43
2019-02-14T19:48:15.892Z,17.73
2019-02-14T19:50:44.093Z,17.43
2019-02-14T19:53:12.767Z,16.67
2019-02-14T19:55:42.115Z,16.60
2019-02-14T19:58:11.448Z,18.50
2019-02-14T20:00:39.700Z,17.87
2019-02-14T20:03:07.973Z,17.33
2019-02-14T20:05:37.436Z,18.90
2019-02-14T20:08:05.477Z,16.90
2019-02-14T20:10:36.449Z,17.67
2019-02-14T20:13:04.695Z,18.27
2019-02-14T20:15:37.203Z,18.90
2019-02-14T20:18:03.504Z,18.37
2019-02-14T20:20:31.925Z,18.03
2019-02-14T20:23:00.046Z,19.60
2019-02-14T20:25:28.355Z,18.30
2019-02-14T20:27:56.886Z,18.40
2019-02-14T20:30:24.814Z,18.73
2019-02-14T20:32:52.900Z,18.07
2019-02-14T20:35:20.937Z,20.47
2019-02-14T20:37:49.093Z,18.50
2019-02-14T20:40:16.999Z,18.80
2019-02-14T20:42:44.931Z,18.67
2019-02-14T20:45:13.566Z,18.80
2019-02-14T20:47:41.460Z,18.17
2019-02-14T20:50:10.330Z,18.17
2019-02-14T20:52:38.221Z,18.27
2019-02-14T20:55:06.803Z,19.07
2019-02-14T20:57:34.680Z,18.80
2019-02-14T21:00:02.658Z,18.87
2019-02-14T21:02:30.587Z,18.47
2019-02-14T21:04:58.527Z,18.80
2019-02-14T21:07:26.513Z,18.50
2019-02-14T21:09:54.384Z,17.90
2019-02-14T21:12:22.259Z,17.90
2019-02-14T21:14:50.320Z,17.70
2019-02-14T21:17:18.507Z,17.50
2019-02-14T21:19:46.601Z,16.63
2019-02-14T21:22:18.325Z,18.73
2019-02-14T21:24:44.362Z,18.47
2019-02-14T21:27:12.408Z,18.37
2019-02-14T21:29:40.367Z,19.07
2019-02-14T21:32:08.366Z,18.43
2019-02-14T21:34:36.346Z,18.80
2019-02-14T21:37:04.339Z,18.20
2019-02-14T21:39:32.307Z,18.53
2019-02-14T21:42:18.595Z,17.77
2019-02-14T21:44:30.157Z,18.00
2019-02-14T21:46:58.100Z,19.30
2019-02-14T21:49:26.019Z,19.70
2019-02-14T21:51:54.064Z,18.67
2019-02-14T21:54:22.084Z,18.07
2019-02-14T21:56:50.185Z,18.17
2019-02-14T21:59:18.135Z,18.87
2019-02-14T22:01:46.066Z,17.80
2019-02-14T22:04:14.303Z,17.67
2019-02-14T22:06:42.380Z,18.23
2019-02-14T22:09:10.319Z,17.43
2019-02-14T22:11:38.344Z,18.13
2019-02-14T22:14:07.039Z,17.40
2019-02-14T22:16:34.931Z,17.97
2019-02-14T22:19:02.876Z,17.33
2019-02-14T22:21:30.777Z,16.93
2019-02-14T22:23:58.818Z,17.50
2019-02-14T22:26:26.869Z,18.40
2019-02-14T22:28:54.743Z,18.13
2019-02-14T22:31:22.675Z,17.97
2019-02-14T22:33:50.545Z,16.70
2019-02-14T22:36:18.476Z,16.20
2019-02-14T22:38:46.354Z,17.17
2019-02-14T22:41:14.261Z,16.03
2019-02-14T22:43:42.154Z,15.60
2019-02-14T22:46:10.150Z,15.37
2019-02-14T22:48:38.026Z,14.53
2019-02-14T22:51:06.037Z,15.13
2019-02-14T22:53:33.941Z,15.33
2019-02-14T22:56:01.931Z,15.30
2019-02-14T22:58:29.805Z,15.67
2019-02-14T23:00:58.497Z,15.20
2019-02-14T23:03:26.495Z,14.37
2019-02-14T23:05:54.424Z,15.10
2019-02-14T23:08:22.350Z,14.90
2019-02-14T23:10:50.424Z,15.60
2019-02-14T23:13:18.770Z,14.80
2019-02-14T23:15:46.726Z,16.23
2019-02-14T23:18:14.791Z,16.13
2019-02-14T23:20:42.709Z,14.80
2019-02-14T23:23:10.606Z,15.83
2019-02-14T23:25:38.475Z,16.47
2019-02-14T23:28:06.406Z,16.47
2019-02-14T23:30:34.258Z,15.67
2019-02-14T23:33:02.143Z,17.93
2019-02-14T23:35:29.999Z,16.10
2019-02-14T23:37:57.891Z,14.93
2019-02-14T23:40:26.003Z,16.33
2019-02-14T23:42:54.057Z,15.70
2019-02-14T23:45:21.953Z,16.23
2019-02-14T23:47:49.794Z,16.17
2019-02-14T23:50:17.825Z,16.60
2019-02-14T23:52:45.835Z,16.60
2019-02-14T23:55:13.800Z,16.40
2019-02-14T23:57:41.821Z,16.17
